createdAt,value
2022-12-20T00:00:30.093Z,57.41
2022-12-20T00:01:29.108Z,49.33
2022-12-20T00:02:29.168Z,57.69
2022-12-20T00:03:29.037Z,55.12
2022-12-20T00:04:29.030Z,59.19
2022-12-20T00:05:29.040Z,56.11
2022-12-20T00:06:29.014Z,60.27
2022-12-20T00:07:29.029Z,53.43
2022-12-20T00:08:28.995Z,49.34
2022-12-20T00:09:28.992Z,49.63
2022-12-20T00:10:28.982Z,47.59
2022-12-20T00:11:28.978Z,59.90
2022-12-20T00:12:28.990Z,58.01
2022-12-20T00:13:28.971Z,66.04
2022-12-20T00:14:28.949Z,66.40
2022-12-20T00:15:28.941Z,58.64
2022-12-20T00:16:28.949Z,49.62
2022-12-20T00:17:29.297Z,56.16
2022-12-20T00:18:28.918Z,56.89
2022-12-20T00:19:28.915Z,61.63
2022-12-20T00:20:28.926Z,59.17
2022-12-20T00:21:28.901Z,59.99
2022-12-20T00:22:28.912Z,55.39
2022-12-20T00:23:28.880Z,47.54
2022-12-20T00:24:28.886Z,49.22
2022-12-20T00:25:28.871Z,59.12
2022-12-20T00:26:28.860Z,59.26
2022-12-20T00:27:28.888Z,47.27
2022-12-20T00:28:28.844Z,46.96
2022-12-20T00:29:28.834Z,62.35
2022-12-20T00:30:28.823Z,64.41
2022-12-20T00:31:28.868Z,50.95
2022-12-20T00:32:28.842Z,44.82
2022-12-20T00:33:28.820Z,51.44
2022-12-20T00:34:28.799Z,44.27
2022-12-20T00:35:28.788Z,46.52
2022-12-20T00:36:28.794Z,55.58
2022-12-20T00:37:28.796Z,53.43
2022-12-20T00:38:28.782Z,41.71
2022-12-20T00:39:28.759Z,49.90
2022-12-20T00:40:28.747Z,63.03
2022-12-20T00:41:28.744Z,53.24
2022-12-20T00:42:28.766Z,49.43
2022-12-20T00:43:28.730Z,44.70
2022-12-20T00:44:28.721Z,48.36
2022-12-20T00:45:28.712Z,56.90
2022-12-20T00:46:28.745Z,61.07
2022-12-20T00:47:28.723Z,59.09
2022-12-20T00:48:28.699Z,49.10
2022-12-20T00:49:28.685Z,52.77
2022-12-20T00:50:28.672Z,53.72
2022-12-20T00:51:28.664Z,58.17
2022-12-20T00:52:28.683Z,52.85
2022-12-20T00:53:28.653Z,52.32
2022-12-20T00:54:28.641Z,48.79
2022-12-20T00:55:29.636Z,53.85
2022-12-20T00:56:28.626Z,53.79
2022-12-20T00:57:28.663Z,48.88
2022-12-20T00:58:28.627Z,46.04
2022-12-20T00:59:28.604Z,50.04
2022-12-20T01:00:28.598Z,55.07
2022-12-20T01:01:28.671Z,54.05
2022-12-20T01:02:28.776Z,58.03
2022-12-20T01:03:28.740Z,57.57
2022-12-20T01:04:28.572Z,49.08
2022-12-20T01:05:28.557Z,47.86
2022-12-20T01:06:28.558Z,48.60
2022-12-20T01:07:28.575Z,49.67
2022-12-20T01:08:28.540Z,59.00
2022-12-20T01:09:28.534Z,53.50
2022-12-20T01:10:28.523Z,52.83
2022-12-20T01:11:28.510Z,56.97
2022-12-20T01:12:28.525Z,56.10
2022-12-20T01:13:28.493Z,51.11
2022-12-20T01:14:28.486Z,60.34
2022-12-20T01:15:28.483Z,58.53
2022-12-20T01:16:28.540Z,59.21
2022-12-20T01:17:28.791Z,56.64
2022-12-20T01:18:28.454Z,51.30
2022-12-20T01:19:28.443Z,62.67
2022-12-20T01:20:28.443Z,57.55
2022-12-20T01:21:28.428Z,44.49
2022-12-20T01:22:28.461Z,43.27
2022-12-20T01:23:28.420Z,49.59
2022-12-20T01:24:28.412Z,49.45
2022-12-20T01:25:28.401Z,55.71
2022-12-20T01:26:28.397Z,53.65
2022-12-20T01:27:28.422Z,48.08
2022-12-20T01:28:28.395Z,52.94
2022-12-20T01:29:28.369Z,52.90
2022-12-20T01:30:28.366Z,60.96
2022-12-20T01:31:28.453Z,55.89
2022-12-20T01:32:28.347Z,48.57
2022-12-20T01:33:28.384Z,57.51
2022-12-20T01:34:28.343Z,49.16
2022-12-20T01:35:28.320Z,54.38
2022-12-20T01:36:28.316Z,48.24
2022-12-20T01:37:28.320Z,47.01
2022-12-20T01:38:28.338Z,60.72
2022-12-20T01:39:28.293Z,66.06
2022-12-20T01:40:28.290Z,52.02
2022-12-20T01:41:28.294Z,48.05
2022-12-20T01:42:28.271Z,48.89
2022-12-20T01:43:28.291Z,54.83
2022-12-20T01:44:28.266Z,55.79
2022-12-20T01:45:28.335Z,55.77
2022-12-20T01:46:28.338Z,56.62
2022-12-20T01:47:28.239Z,51.54
2022-12-20T01:48:28.255Z,48.13
2022-12-20T01:49:28.217Z,62.05
2022-12-20T01:50:28.216Z,65.62
2022-12-20T01:51:28.201Z,48.67
2022-12-20T01:52:28.190Z,47.38
2022-12-20T01:53:28.203Z,50.03
2022-12-20T01:54:28.194Z,47.32
2022-12-20T01:55:28.162Z,47.60
2022-12-20T01:56:28.159Z,55.19
2022-12-20T01:57:28.148Z,56.25
2022-12-20T01:58:28.164Z,44.71
2022-12-20T01:59:29.141Z,46.64
2022-12-20T02:00:28.136Z,50.77
2022-12-20T02:01:28.179Z,51.04
2022-12-20T02:02:28.168Z,57.72
2022-12-20T02:03:28.193Z,55.03
2022-12-20T02:04:28.102Z,47.64
2022-12-20T02:05:28.089Z,48.31
2022-12-20T02:06:28.077Z,42.99
2022-12-20T02:07:28.072Z,50.07
2022-12-20T02:08:28.071Z,54.53
2022-12-20T02:09:28.083Z,55.06
2022-12-20T02:10:28.048Z,55.80
2022-12-20T02:11:28.038Z,55.79
2022-12-20T02:12:28.030Z,57.16
2022-12-20T02:13:28.024Z,57.99
2022-12-20T02:14:28.044Z,51.27
2022-12-20T02:15:28.013Z,45.02
2022-12-20T02:16:28.040Z,49.79
2022-12-20T02:17:27.996Z,57.63
2022-12-20T02:18:27.991Z,46.09
2022-12-20T02:19:28.009Z,50.61
2022-12-20T02:20:27.971Z,58.93
2022-12-20T02:21:27.965Z,52.76
2022-12-20T02:22:27.956Z,50.61
2022-12-20T02:23:27.954Z,59.72
2022-12-20T02:24:27.967Z,64.46
2022-12-20T02:25:27.938Z,56.25
2022-12-20T02:26:27.928Z,53.51
2022-12-20T02:27:27.919Z,60.82
2022-12-20T02:28:27.916Z,63.67
2022-12-20T02:29:27.920Z,55.50
2022-12-20T02:30:27.897Z,52.52
2022-12-20T02:31:27.950Z,55.64
2022-12-20T02:32:27.880Z,55.03
2022-12-20T02:33:27.873Z,56.57
2022-12-20T02:34:27.895Z,56.37
2022-12-20T02:35:27.863Z,51.24
2022-12-20T02:36:27.848Z,52.39
2022-12-20T02:37:27.837Z,51.81
2022-12-20T02:38:27.827Z,45.68
2022-12-20T02:39:27.854Z,46.45
2022-12-20T02:40:27.810Z,49.69
2022-12-20T02:41:27.817Z,50.13
2022-12-20T02:42:27.795Z,50.87
2022-12-20T02:43:27.790Z,51.27
2022-12-20T02:44:27.823Z,57.80
2022-12-20T02:45:27.777Z,50.73
2022-12-20T02:46:27.933Z,46.78
2022-12-20T02:47:27.769Z,54.68
2022-12-20T02:48:27.750Z,56.06
2022-12-20T02:49:27.748Z,53.83
2022-12-20T02:50:27.759Z,64.70
2022-12-20T02:51:27.731Z,62.16
2022-12-20T02:52:27.733Z,54.51
2022-12-20T02:53:27.715Z,61.02
2022-12-20T02:54:27.714Z,61.09
2022-12-20T02:55:27.723Z,71.13
2022-12-20T02:56:27.688Z,62.82
2022-12-20T02:57:27.694Z,62.52
2022-12-20T02:58:27.674Z,53.31
2022-12-20T02:59:27.662Z,59.08
2022-12-20T03:00:27.688Z,50.13
2022-12-20T03:01:27.768Z,47.93
2022-12-20T03:02:27.814Z,56.73
2022-12-20T03:03:27.724Z,61.64
2022-12-20T03:04:27.626Z,61.16
2022-12-20T03:05:27.661Z,65.14
2022-12-20T03:06:27.609Z,58.81
2022-12-20T03:07:27.605Z,55.16
2022-12-20T03:08:27.595Z,58.19
2022-12-20T03:09:27.598Z,65.13
2022-12-20T03:10:27.596Z,56.15
2022-12-20T03:11:27.605Z,68.42
2022-12-20T03:12:27.583Z,56.39
2022-12-20T03:13:27.562Z,54.30
2022-12-20T03:14:27.560Z,61.65
2022-12-20T03:15:27.543Z,63.34
2022-12-20T03:16:27.616Z,53.40
2022-12-20T03:17:27.540Z,59.22
2022-12-20T03:18:27.530Z,56.28
2022-12-20T03:19:27.511Z,57.79
2022-12-20T03:20:27.505Z,54.78
2022-12-20T03:21:27.520Z,51.13
2022-12-20T03:22:27.488Z,62.58
2022-12-20T03:23:27.478Z,69.03
2022-12-20T03:24:27.476Z,56.19
2022-12-20T03:25:27.484Z,56.97
2022-12-20T03:26:27.479Z,46.98
2022-12-20T03:27:27.447Z,65.54
2022-12-20T03:28:27.439Z,60.48
2022-12-20T03:29:27.429Z,49.84
2022-12-20T03:30:27.420Z,58.17
2022-12-20T03:31:27.516Z,62.54
2022-12-20T03:32:27.408Z,52.06
2022-12-20T03:33:27.395Z,57.33
2022-12-20T03:34:27.394Z,63.30
2022-12-20T03:35:27.382Z,58.92
2022-12-20T03:36:27.408Z,60.26
2022-12-20T03:37:27.369Z,59.33
2022-12-20T03:38:27.352Z,61.90
2022-12-20T03:39:27.350Z,52.56
2022-12-20T03:40:27.349Z,64.74
2022-12-20T03:41:27.368Z,61.17
2022-12-20T03:42:27.328Z,51.43
2022-12-20T03:43:27.317Z,50.47
2022-12-20T03:44:27.392Z,59.00
2022-12-20T03:45:27.306Z,57.29
2022-12-20T03:46:27.389Z,55.13
2022-12-20T03:47:27.304Z,59.65
2022-12-20T03:48:27.282Z,54.15
2022-12-20T03:49:27.286Z,65.02
2022-12-20T03:50:27.268Z,58.97
2022-12-20T03:51:27.292Z,57.03
2022-12-20T03:52:27.245Z,64.40
2022-12-20T03:53:27.235Z,59.59
2022-12-20T03:54:27.243Z,60.04
2022-12-20T03:55:27.225Z,61.42
2022-12-20T03:56:27.239Z,59.53
2022-12-20T03:57:27.212Z,58.81
2022-12-20T03:58:27.203Z,67.12
2022-12-20T03:59:27.213Z,62.52
2022-12-20T04:00:27.185Z,61.03
2022-12-20T04:01:27.303Z,63.03
2022-12-20T04:02:27.393Z,64.30
2022-12-20T04:03:27.206Z,59.30
2022-12-20T04:04:27.150Z,66.97
2022-12-20T04:05:27.165Z,62.80
2022-12-20T04:06:27.160Z,62.16
2022-12-20T04:07:28.133Z,61.18
2022-12-20T04:08:27.127Z,61.25
2022-12-20T04:09:27.118Z,64.43
2022-12-20T04:10:27.115Z,65.64
2022-12-20T04:11:27.122Z,60.74
2022-12-20T04:12:27.097Z,58.61
2022-12-20T04:13:27.084Z,63.78
2022-12-20T04:14:27.089Z,60.86
2022-12-20T04:15:27.105Z,59.68
2022-12-20T04:16:27.240Z,65.02
2022-12-20T04:17:27.056Z,59.59
2022-12-20T04:18:27.047Z,62.36
2022-12-20T04:19:27.039Z,61.37
2022-12-20T04:20:27.032Z,61.92
2022-12-20T04:21:27.052Z,63.86
2022-12-20T04:22:27.024Z,69.42
2022-12-20T04:23:27.010Z,62.48
2022-12-20T04:24:27.003Z,66.01
2022-12-20T04:25:27.001Z,65.76
2022-12-20T04:26:27.014Z,63.95
2022-12-20T04:27:26.985Z,64.26
2022-12-20T04:28:26.971Z,70.02
2022-12-20T04:29:26.973Z,65.31
2022-12-20T04:30:26.967Z,66.43
2022-12-20T04:31:27.053Z,60.95
2022-12-20T04:32:26.947Z,62.59
2022-12-20T04:33:26.937Z,62.67
2022-12-20T04:34:26.931Z,52.32
2022-12-20T04:35:26.934Z,65.69
2022-12-20T04:36:26.943Z,65.81
2022-12-20T04:37:26.909Z,62.13
2022-12-20T04:38:26.907Z,60.30
2022-12-20T04:39:26.899Z,64.78
2022-12-20T04:40:26.885Z,64.23
2022-12-20T04:41:26.861Z,64.86
2022-12-20T04:42:27.895Z,65.79
2022-12-20T04:43:26.864Z,62.23
2022-12-20T04:44:26.856Z,62.94
2022-12-20T04:45:26.852Z,64.54
2022-12-20T04:46:26.886Z,64.73
2022-12-20T04:47:26.859Z,66.59
2022-12-20T04:49:28.816Z,63.31
2022-12-20T04:50:26.810Z,64.98
2022-12-20T04:51:26.814Z,68.13
2022-12-20T04:52:26.813Z,65.14
2022-12-20T04:53:26.784Z,62.26
2022-12-20T04:54:26.772Z,63.93
2022-12-20T04:55:26.789Z,64.12
2022-12-20T04:56:26.758Z,62.64
2022-12-20T04:57:26.781Z,59.89
2022-12-20T04:58:26.767Z,65.20
2022-12-20T04:59:26.741Z,64.46
2022-12-20T05:00:26.730Z,61.47
2022-12-20T05:01:26.829Z,67.48
2022-12-20T05:02:26.822Z,65.89
2022-12-20T05:03:26.765Z,62.37
2022-12-20T05:04:31.592Z,61.55
2022-12-20T05:05:27.694Z,69.08
2022-12-20T05:06:26.685Z,65.25
2022-12-20T05:07:26.701Z,67.95
2022-12-20T05:08:26.670Z,63.14
2022-12-20T05:09:26.664Z,63.69
2022-12-20T05:10:26.660Z,68.13
2022-12-20T05:11:26.642Z,65.68
2022-12-20T05:12:26.664Z,67.94
2022-12-20T05:13:26.631Z,68.28
2022-12-20T05:14:26.624Z,66.89
2022-12-20T05:15:26.614Z,67.20
2022-12-20T05:16:26.636Z,63.05
2022-12-20T05:17:26.625Z,66.67
2022-12-20T05:18:26.591Z,62.39
2022-12-20T05:19:26.587Z,64.80
2022-12-20T05:20:26.575Z,64.77
2022-12-20T05:21:26.582Z,65.25
2022-12-20T05:22:26.585Z,63.69
2022-12-20T05:23:26.552Z,65.79
2022-12-20T05:24:26.547Z,62.61
2022-12-20T05:25:26.565Z,67.53
2022-12-20T05:26:26.533Z,66.39
2022-12-20T05:27:26.556Z,65.90
2022-12-20T05:28:26.513Z,64.91
2022-12-20T05:29:26.505Z,64.79
2022-12-20T05:30:26.498Z,65.88
2022-12-20T05:31:26.521Z,63.20
2022-12-20T05:32:26.519Z,60.81
2022-12-20T05:33:32.098Z,65.54
2022-12-20T05:34:28.466Z,65.31
2022-12-20T05:35:26.469Z,64.70
2022-12-20T05:36:26.453Z,65.32
2022-12-20T05:37:26.475Z,63.96
2022-12-20T05:38:26.430Z,66.16
2022-12-20T05:39:26.428Z,64.16
2022-12-20T05:40:26.415Z,66.88
2022-12-20T05:41:26.417Z,68.85
2022-12-20T05:42:26.432Z,68.08
2022-12-20T05:43:26.406Z,68.99
2022-12-20T05:44:26.388Z,67.74
2022-12-20T05:45:26.387Z,70.39
2022-12-20T05:46:26.427Z,67.91
2022-12-20T05:47:26.417Z,67.27
2022-12-20T05:48:26.360Z,67.00
2022-12-20T05:49:26.349Z,65.32
2022-12-20T05:50:26.342Z,68.87
2022-12-20T05:51:26.335Z,64.77
2022-12-20T05:52:26.343Z,71.73
2022-12-20T05:53:27.315Z,67.94
2022-12-20T05:54:26.328Z,64.48
2022-12-20T05:55:26.300Z,67.39
2022-12-20T05:56:26.299Z,67.07
2022-12-20T05:57:26.304Z,64.96
2022-12-20T05:58:26.303Z,64.25
2022-12-20T05:59:26.266Z,67.09
2022-12-20T06:00:26.265Z,66.03
2022-12-20T06:01:26.313Z,66.76
2022-12-20T06:02:26.335Z,65.86
2022-12-20T06:03:26.356Z,64.98
2022-12-20T06:04:26.311Z,65.65
2022-12-20T06:05:27.227Z,66.15
2022-12-20T06:06:26.211Z,72.01
2022-12-20T06:07:26.236Z,67.08
2022-12-20T06:08:26.207Z,64.19
2022-12-20T06:09:26.193Z,64.94
2022-12-20T06:10:26.189Z,64.65
2022-12-20T06:11:30.154Z,67.04
2022-12-20T06:12:27.215Z,66.50
2022-12-20T06:13:26.160Z,65.42
2022-12-20T06:14:26.159Z,64.21
2022-12-20T06:15:26.152Z,63.65
2022-12-20T06:16:26.214Z,64.73
2022-12-20T06:17:26.150Z,65.14
2022-12-20T06:18:26.123Z,67.04
2022-12-20T06:19:26.131Z,65.04
2022-12-20T06:20:26.116Z,69.65
2022-12-20T06:21:26.111Z,65.25
2022-12-20T06:22:26.132Z,62.87
2022-12-20T06:23:26.094Z,66.19
2022-12-20T06:24:26.072Z,65.67
2022-12-20T06:25:27.068Z,57.73
2022-12-20T06:26:26.080Z,62.15
2022-12-20T06:27:26.104Z,61.83
2022-12-20T06:28:26.047Z,61.98
2022-12-20T06:29:26.043Z,62.95
2022-12-20T06:30:31.911Z,62.76
2022-12-20T06:31:28.061Z,63.22
2022-12-20T06:32:26.024Z,64.25
2022-12-20T06:33:26.046Z,64.81
2022-12-20T06:34:25.995Z,62.39
2022-12-20T06:35:25.991Z,65.29
2022-12-20T06:36:25.980Z,62.75
2022-12-20T06:37:25.973Z,64.12
2022-12-20T06:38:25.989Z,65.54
2022-12-20T06:39:25.961Z,66.90
2022-12-20T06:40:25.944Z,60.32
2022-12-20T06:41:25.942Z,66.37
2022-12-20T06:42:25.931Z,61.24
2022-12-20T06:43:25.951Z,62.99
2022-12-20T06:44:25.923Z,61.55
2022-12-20T06:45:25.955Z,65.25
2022-12-20T06:46:26.027Z,65.20
2022-12-20T06:47:25.890Z,63.00
2022-12-20T06:48:25.911Z,64.53
2022-12-20T06:49:25.875Z,63.87
2022-12-20T06:50:25.870Z,66.48
2022-12-20T06:51:25.856Z,61.72
2022-12-20T06:52:25.940Z,61.30
2022-12-20T06:53:25.869Z,63.95
2022-12-20T06:54:25.833Z,63.65
2022-12-20T06:55:25.859Z,62.37
2022-12-20T06:56:25.822Z,61.47
2022-12-20T06:57:25.816Z,58.78
2022-12-20T06:58:25.828Z,57.51
2022-12-20T06:59:26.030Z,59.92
2022-12-20T07:00:25.793Z,61.23
2022-12-20T07:01:25.920Z,61.63
2022-12-20T07:02:27.932Z,60.61
2022-12-20T07:03:26.931Z,59.48
2022-12-20T07:04:25.765Z,63.27
2022-12-20T07:05:25.754Z,63.29
2022-12-20T07:06:25.752Z,61.64
2022-12-20T07:07:25.736Z,65.10
2022-12-20T07:08:25.754Z,65.21
2022-12-20T07:09:25.716Z,62.42
2022-12-20T07:10:25.716Z,64.25
2022-12-20T07:11:25.709Z,62.37
2022-12-20T07:12:25.698Z,61.18
2022-12-20T07:13:26.116Z,61.47
2022-12-20T07:14:25.682Z,60.92
2022-12-20T07:15:25.682Z,61.43
2022-12-20T07:16:25.695Z,63.91
2022-12-20T07:17:25.664Z,63.53
2022-12-20T07:18:25.695Z,64.53
2022-12-20T07:19:25.645Z,63.49
2022-12-20T07:20:25.656Z,69.01
2022-12-20T07:21:25.625Z,59.72
2022-12-20T07:22:25.617Z,64.07
2022-12-20T07:23:25.643Z,59.72
2022-12-20T07:24:25.602Z,61.33
2022-12-20T07:25:25.609Z,61.89
2022-12-20T07:26:25.604Z,64.93
2022-12-20T07:27:25.588Z,62.74
2022-12-20T07:28:26.046Z,63.40
2022-12-20T07:29:25.566Z,65.81
2022-12-20T07:30:25.550Z,63.35
2022-12-20T07:31:26.640Z,63.46
2022-12-20T07:32:25.621Z,63.89
2022-12-20T07:33:25.554Z,62.21
2022-12-20T07:34:25.528Z,62.23
2022-12-20T07:35:25.515Z,63.98
2022-12-20T07:36:25.515Z,59.78
2022-12-20T07:37:25.497Z,61.55
2022-12-20T07:38:25.520Z,64.43
2022-12-20T07:39:25.485Z,61.39
2022-12-20T07:40:25.494Z,64.73
2022-12-20T07:41:25.470Z,63.05
2022-12-20T07:42:33.644Z,61.40
2022-12-20T07:43:27.478Z,64.33
2022-12-20T07:44:25.467Z,63.15
2022-12-20T07:45:25.438Z,61.62
2022-12-20T07:46:25.521Z,66.69
2022-12-20T07:47:25.427Z,65.22
2022-12-20T07:48:25.445Z,64.37
2022-12-20T07:49:25.417Z,58.45
2022-12-20T07:50:25.398Z,65.52
2022-12-20T07:51:25.400Z,61.66
2022-12-20T07:52:25.388Z,63.64
2022-12-20T07:53:25.407Z,60.35
2022-12-20T07:54:25.377Z,60.31
2022-12-20T07:55:25.372Z,60.28
2022-12-20T07:56:25.359Z,56.42
2022-12-20T07:57:25.350Z,57.56
2022-12-20T07:58:25.371Z,65.30
2022-12-20T07:59:25.343Z,64.56
2022-12-20T08:00:25.334Z,61.27
2022-12-20T08:01:25.475Z,64.44
2022-12-20T08:02:26.450Z,63.16
2022-12-20T08:03:25.515Z,63.48
2022-12-20T08:04:25.303Z,62.79
2022-12-20T08:05:25.297Z,60.58
2022-12-20T08:06:25.285Z,64.94
2022-12-20T08:07:25.271Z,62.92
2022-12-20T08:08:25.293Z,65.83
2022-12-20T08:09:25.261Z,62.10
2022-12-20T08:10:25.256Z,62.88
2022-12-20T08:11:25.248Z,64.42
2022-12-20T08:12:25.242Z,60.69
2022-12-20T08:13:25.261Z,64.55
2022-12-20T08:14:25.251Z,63.85
2022-12-20T08:15:25.245Z,65.16
2022-12-20T08:16:25.293Z,67.23
2022-12-20T08:17:25.201Z,63.14
2022-12-20T08:18:25.220Z,59.32
2022-12-20T08:19:31.853Z,59.83
2022-12-20T08:20:27.194Z,63.30
2022-12-20T08:21:25.180Z,62.46
2022-12-20T08:22:25.164Z,59.95
2022-12-20T08:23:25.187Z,59.87
2022-12-20T08:24:25.160Z,62.55
2022-12-20T08:25:25.149Z,61.38
2022-12-20T08:26:25.135Z,59.43
2022-12-20T08:27:25.157Z,60.85
2022-12-20T08:28:25.146Z,60.40
2022-12-20T08:29:25.117Z,59.97
2022-12-20T08:30:25.130Z,57.68
2022-12-20T08:31:25.177Z,61.92
2022-12-20T08:32:25.092Z,61.57
2022-12-20T08:33:25.133Z,60.39
2022-12-20T08:34:25.097Z,61.52
2022-12-20T08:35:25.095Z,58.87
2022-12-20T08:36:25.052Z,60.26
2022-12-20T08:37:26.065Z,58.49
2022-12-20T08:38:25.048Z,60.22
2022-12-20T08:39:25.069Z,58.41
2022-12-20T08:40:25.049Z,58.76
2022-12-20T08:41:25.023Z,58.79
2022-12-20T08:42:25.023Z,58.84
2022-12-20T08:43:24.996Z,57.63
2022-12-20T08:44:26.067Z,59.79
2022-12-20T08:45:24.995Z,60.34
2022-12-20T08:46:25.098Z,62.46
2022-12-20T08:47:25.001Z,60.01
2022-12-20T08:48:24.968Z,60.83
2022-12-20T08:49:24.992Z,60.40
2022-12-20T08:50:24.981Z,59.98
2022-12-20T08:51:25.015Z,60.90
2022-12-20T08:52:24.938Z,59.14
2022-12-20T08:53:24.935Z,58.93
2022-12-20T08:54:24.953Z,61.00
2022-12-20T08:55:27.943Z,61.46
2022-12-20T08:56:25.905Z,60.06
2022-12-20T08:57:24.902Z,61.33
2022-12-20T08:58:24.895Z,60.68
2022-12-20T08:59:24.907Z,61.61
2022-12-20T09:00:24.963Z,61.59
2022-12-20T09:01:25.026Z,61.39
2022-12-20T09:02:24.983Z,58.51
2022-12-20T09:03:24.895Z,60.39
2022-12-20T09:04:24.874Z,60.55
2022-12-20T09:05:24.856Z,59.40
2022-12-20T09:06:24.850Z,60.30
2022-12-20T09:07:24.828Z,58.95
2022-12-20T09:08:24.824Z,59.74
2022-12-20T09:09:24.832Z,58.40
2022-12-20T09:10:24.807Z,62.93
2022-12-20T09:11:24.800Z,61.30
2022-12-20T09:12:24.779Z,60.55
2022-12-20T09:13:24.782Z,61.42
2022-12-20T09:14:24.792Z,60.89
2022-12-20T09:15:24.796Z,61.11
2022-12-20T09:16:24.798Z,60.78
2022-12-20T09:17:24.776Z,62.00
2022-12-20T09:18:24.738Z,58.93
2022-12-20T09:19:24.765Z,57.59
2022-12-20T09:20:24.812Z,60.87
2022-12-20T09:21:24.718Z,60.79
2022-12-20T09:22:24.706Z,60.56
2022-12-20T09:23:24.728Z,57.99
2022-12-20T09:24:24.715Z,56.70
2022-12-20T09:25:24.685Z,60.73
2022-12-20T09:26:24.689Z,61.78
2022-12-20T09:27:24.675Z,58.49
2022-12-20T09:28:24.663Z,58.48
2022-12-20T09:29:28.459Z,63.17
2022-12-20T09:30:26.650Z,59.33
2022-12-20T09:31:24.706Z,59.15
2022-12-20T09:32:24.632Z,60.87
2022-12-20T09:33:24.630Z,58.60
2022-12-20T09:34:24.643Z,62.62
2022-12-20T09:35:24.608Z,65.69
2022-12-20T09:36:24.603Z,61.81
2022-12-20T09:37:24.612Z,65.14
2022-12-20T09:38:24.608Z,62.35
2022-12-20T09:39:24.678Z,60.23
2022-12-20T09:40:24.663Z,59.74
2022-12-20T09:41:24.564Z,63.25
2022-12-20T09:42:24.563Z,62.71
2022-12-20T09:43:24.551Z,62.59
2022-12-20T09:44:24.571Z,64.10
2022-12-20T09:45:24.533Z,58.71
2022-12-20T09:46:24.551Z,64.58
2022-12-20T09:47:24.519Z,59.56
2022-12-20T09:48:24.513Z,60.90
2022-12-20T09:49:24.533Z,59.67
2022-12-20T09:50:24.553Z,60.01
2022-12-20T09:51:24.489Z,63.01
2022-12-20T09:52:24.479Z,61.33
2022-12-20T09:53:24.466Z,57.79
2022-12-20T09:54:24.496Z,60.45
2022-12-20T09:55:24.458Z,68.33
2022-12-20T09:56:24.460Z,63.31
2022-12-20T09:57:24.447Z,63.26
2022-12-20T09:58:24.432Z,62.64
2022-12-20T09:59:24.432Z,62.22
2022-12-20T10:00:24.565Z,62.56
2022-12-20T10:01:25.738Z,63.21
2022-12-20T10:03:26.634Z,56.37
2022-12-20T10:04:24.597Z,58.36
2022-12-20T10:05:24.518Z,63.75
2022-12-20T10:06:24.371Z,64.59
2022-12-20T10:07:24.362Z,65.31
2022-12-20T10:08:24.379Z,61.31
2022-12-20T10:09:24.365Z,64.72
2022-12-20T10:10:24.365Z,60.97
2022-12-20T10:11:24.336Z,62.41
2022-12-20T10:12:24.346Z,60.09
2022-12-20T10:13:24.324Z,58.32
2022-12-20T10:14:24.306Z,60.31
2022-12-20T10:15:24.332Z,62.27
2022-12-20T10:16:24.332Z,62.08
2022-12-20T10:17:30.538Z,59.41
2022-12-20T10:18:26.292Z,60.19
2022-12-20T10:19:24.273Z,58.98
2022-12-20T10:20:24.367Z,61.18
2022-12-20T10:21:24.265Z,57.44
2022-12-20T10:22:24.248Z,55.17
2022-12-20T10:23:30.953Z,59.52
2022-12-20T10:24:26.239Z,56.37
2022-12-20T10:25:24.248Z,59.85
2022-12-20T10:26:24.222Z,60.43
2022-12-20T10:27:24.207Z,59.73
2022-12-20T10:28:24.210Z,58.15
2022-12-20T10:29:24.193Z,60.64
2022-12-20T10:30:24.245Z,55.72
2022-12-20T10:31:24.293Z,59.46
2022-12-20T10:32:24.167Z,56.25
2022-12-20T10:33:24.180Z,59.89
2022-12-20T10:34:24.161Z,60.42
2022-12-20T10:35:24.177Z,57.67
2022-12-20T10:36:24.175Z,60.46
2022-12-20T10:37:24.138Z,60.01
2022-12-20T10:38:24.126Z,58.67
2022-12-20T10:39:24.119Z,57.17
2022-12-20T10:40:30.460Z,60.55
2022-12-20T10:41:25.098Z,59.24
2022-12-20T10:42:24.134Z,58.49
2022-12-20T10:43:24.103Z,58.05
2022-12-20T10:44:24.082Z,58.12
2022-12-20T10:45:24.096Z,60.39
2022-12-20T10:46:24.129Z,56.82
2022-12-20T10:47:24.053Z,61.25
2022-12-20T10:48:24.066Z,60.20
2022-12-20T10:49:24.045Z,60.04
2022-12-20T10:50:24.048Z,56.79
2022-12-20T10:51:24.061Z,57.80
2022-12-20T10:52:24.015Z,58.52
2022-12-20T10:53:24.015Z,60.74
2022-12-20T10:54:24.014Z,58.52
2022-12-20T10:55:23.996Z,59.28
2022-12-20T10:56:24.008Z,58.05
2022-12-20T10:57:23.976Z,59.93
2022-12-20T10:58:23.967Z,60.81
2022-12-20T10:59:23.961Z,61.94
2022-12-20T11:00:23.947Z,59.38
2022-12-20T11:01:24.003Z,58.88
2022-12-20T11:02:24.050Z,60.63
2022-12-20T11:03:24.094Z,59.84
2022-12-20T11:04:23.966Z,55.95
2022-12-20T11:05:23.924Z,57.83
2022-12-20T11:06:23.922Z,59.66
2022-12-20T11:07:23.902Z,59.70
2022-12-20T11:08:37.576Z,59.32
2022-12-20T11:09:25.889Z,56.92
2022-12-20T11:10:23.891Z,57.68
2022-12-20T11:11:23.892Z,59.77
2022-12-20T11:12:23.853Z,58.57
2022-12-20T11:13:23.855Z,60.25
2022-12-20T11:14:23.831Z,60.50
2022-12-20T11:15:34.349Z,61.17
2022-12-20T11:16:24.892Z,58.40
2022-12-20T11:17:23.816Z,60.30
2022-12-20T11:18:23.807Z,61.48
2022-12-20T11:19:23.805Z,58.52
2022-12-20T11:20:23.793Z,60.70
2022-12-20T11:21:28.104Z,60.82
2022-12-20T11:22:24.783Z,59.93
2022-12-20T11:23:23.764Z,57.20
2022-12-20T11:24:23.752Z,58.15
2022-12-20T11:25:23.756Z,60.69
2022-12-20T11:26:23.772Z,59.31
2022-12-20T11:27:23.744Z,57.35
2022-12-20T11:28:23.725Z,62.55
2022-12-20T11:29:23.727Z,62.54
2022-12-20T11:30:23.713Z,61.06
2022-12-20T11:31:23.780Z,55.61
2022-12-20T11:32:23.701Z,58.95
2022-12-20T11:33:23.703Z,63.80
2022-12-20T11:34:23.691Z,59.86
2022-12-20T11:35:23.679Z,62.78
2022-12-20T11:36:23.696Z,59.12
2022-12-20T11:37:23.661Z,62.02
2022-12-20T11:38:23.651Z,62.16
2022-12-20T11:39:23.642Z,60.87
2022-12-20T11:40:23.637Z,61.51
2022-12-20T11:41:23.666Z,58.68
2022-12-20T11:42:23.645Z,60.56
2022-12-20T11:43:23.623Z,59.64
2022-12-20T11:44:25.735Z,62.25
2022-12-20T11:45:24.602Z,58.61
2022-12-20T11:46:23.672Z,61.11
2022-12-20T11:47:23.613Z,60.15
2022-12-20T11:48:23.593Z,63.64
2022-12-20T11:49:23.575Z,63.12
2022-12-20T11:50:23.563Z,62.39
2022-12-20T11:51:26.715Z,62.72
2022-12-20T11:52:24.577Z,59.85
2022-12-20T11:53:23.544Z,61.17
2022-12-20T11:54:23.536Z,60.75
2022-12-20T11:55:23.523Z,60.65
2022-12-20T11:56:23.528Z,61.63
2022-12-20T11:57:23.536Z,62.23
2022-12-20T11:58:23.507Z,61.29
2022-12-20T11:59:23.526Z,59.98
2022-12-20T12:00:23.506Z,61.67
2022-12-20T12:01:23.503Z,58.41
2022-12-20T12:02:23.672Z,61.29
2022-12-20T12:03:23.520Z,61.86
2022-12-20T12:04:23.459Z,62.14
2022-12-20T12:05:23.498Z,62.21
2022-12-20T12:06:23.444Z,59.93
2022-12-20T12:07:23.473Z,63.37
2022-12-20T12:08:23.427Z,61.79
2022-12-20T12:09:23.423Z,63.54
2022-12-20T12:10:23.419Z,63.26
2022-12-20T12:12:04.605Z,61.53
2022-12-20T12:12:25.419Z,62.59
2022-12-20T12:13:23.392Z,59.89
2022-12-20T12:14:23.383Z,61.06
2022-12-20T12:15:23.376Z,60.99
2022-12-20T12:16:23.405Z,61.04
2022-12-20T12:17:23.453Z,62.81
2022-12-20T12:18:24.287Z,63.78
2022-12-20T12:19:23.349Z,62.47
2022-12-20T12:20:23.334Z,63.82
2022-12-20T12:21:23.323Z,60.23
2022-12-20T12:22:23.349Z,62.73
2022-12-20T12:23:23.309Z,61.25
2022-12-20T12:24:23.304Z,61.11
2022-12-20T12:25:23.304Z,58.35
2022-12-20T12:26:23.299Z,61.31
2022-12-20T12:27:23.315Z,60.36
2022-12-20T12:28:23.272Z,62.49
2022-12-20T12:29:23.271Z,62.83
2022-12-20T12:30:23.311Z,60.68
2022-12-20T12:31:23.298Z,63.77
2022-12-20T12:32:23.241Z,62.73
2022-12-20T12:33:25.806Z,58.95
2022-12-20T12:34:24.224Z,62.22
2022-12-20T12:35:23.219Z,60.49
2022-12-20T12:36:23.239Z,61.32
2022-12-20T12:37:23.217Z,60.43
2022-12-20T12:38:23.182Z,61.94
2022-12-20T12:39:24.193Z,61.36
2022-12-20T12:40:23.179Z,60.59
2022-12-20T12:41:23.221Z,59.69
2022-12-20T12:42:23.188Z,59.11
2022-12-20T12:43:23.307Z,60.86
2022-12-20T12:44:23.152Z,61.34
2022-12-20T12:45:23.148Z,61.31
2022-12-20T12:46:23.231Z,60.15
2022-12-20T12:47:23.127Z,61.82
2022-12-20T12:48:23.125Z,60.01
2022-12-20T12:49:23.112Z,62.01
2022-12-20T12:50:23.109Z,62.03
2022-12-20T12:51:23.126Z,60.67
2022-12-20T12:52:23.099Z,57.43
2022-12-20T12:53:23.108Z,61.76
2022-12-20T12:54:23.070Z,60.96